sensor_id;sensor_type;location;lat;lon;timestamp;pressure;altitude;pressure_sealevel;temperature;humidity
36190;BME280;22232;50.914;13.858;2023-08-24T00:01:10;98160.84;;;18.73;100.00
36190;BME280;22232;50.914;13.858;2023-08-24T00:03:39;98160.00;;;18.77;100.00
36190;BME280;22232;50.914;13.858;2023-08-24T00:06:07;98155.97;;;18.80;100.00
36190;BME280;22232;50.914;13.858;2023-08-24T00:08:35;98157.06;;;18.74;100.00
36190;BME280;22232;50.914;13.858;2023-08-24T00:11:02;98151.91;;;18.77;100.00
36190;BME280;22232;50.914;13.858;2023-08-24T00:13:32;98148.69;;;18.75;100.00
36190;BME280;22232;50.914;13.858;2023-08-24T00:15:59;98153.00;;;18.66;100.00
36190;BME280;22232;50.914;13.858;2023-08-24T00:18:27;98149.78;;;18.64;100.00
36190;BME280;22232;50.914;13.858;2023-08-24T00:20:55;98150.06;;;18.63;100.00
36190;BME280;22232;50.914;13.858;2023-08-24T00:23:23;98148.16;;;18.58;100.00
36190;BME280;22232;50.914;13.858;2023-08-24T00:25:51;98151.16;;;18.56;100.00
36190;BME280;22232;50.914;13.858;2023-08-24T00:28:18;98146.84;;;18.50;100.00
36190;BME280;22232;50.914;13.858;2023-08-24T00:30:46;98148.47;;;18.46;100.00
36190;BME280;22232;50.914;13.858;2023-08-24T00:33:14;98146.84;;;18.40;100.00
36190;BME280;22232;50.914;13.858;2023-08-24T00:35:42;98133.38;;;18.35;100.00
36190;BME280;22232;50.914;13.858;2023-08-24T00:38:09;98141.75;;;18.33;100.00
36190;BME280;22232;50.914;13.858;2023-08-24T00:40:37;98148.75;;;18.34;100.00
36190;BME280;22232;50.914;13.858;2023-08-24T00:43:06;98147.13;;;18.28;100.00
36190;BME280;22232;50.914;13.858;2023-08-24T00:45:34;98150.13;;;18.27;100.00
36190;BME280;22232;50.914;13.858;2023-08-24T00:48:03;98142.56;;;18.24;100.00
36190;BME280;22232;50.914;13.858;2023-08-24T00:50:32;98146.63;;;18.21;100.00
36190;BME280;22232;50.914;13.858;2023-08-24T00:52:59;98154.44;;;18.18;100.00
36190;BME280;22232;50.914;13.858;2023-08-24T00:55:27;98150.94;;;18.17;100.00
36190;BME280;22232;50.914;13.858;2023-08-24T00:57:55;98151.75;;;18.18;100.00
36190;BME280;22232;50.914;13.858;2023-08-24T01:00:23;98147.16;;;18.18;100.00
36190;BME280;22232;50.914;13.858;2023-08-24T01:02:51;98145.81;;;18.21;100.00
36190;BME280;22232;50.914;13.858;2023-08-24T01:05:19;98150.13;;;18.22;100.00
36190;BME280;22232;50.914;13.858;2023-08-24T01:07:47;98146.88;;;18.20;100.00
36190;BME280;22232;50.914;13.858;2023-08-24T01:10:15;98142.84;;;18.17;100.00
36190;BME280;22232;50.914;13.858;2023-08-24T01:15:37;98145.25;;;18.14;100.00
36190;BME280;22232;50.914;13.858;2023-08-24T01:18:10;98145.25;;;18.14;100.00
36190;BME280;22232;50.914;13.858;2023-08-24T01:20:38;98149.84;;;18.13;100.00
36190;BME280;22232;50.914;13.858;2023-08-24T01:23:36;98143.09;;;18.10;100.00
36190;BME280;22232;50.914;13.858;2023-08-24T01:26:18;98133.41;;;18.09;100.00
36190;BME280;22232;50.914;13.858;2023-08-24T01:28:47;98138.78;;;18.09;100.00
36190;BME280;22232;50.914;13.858;2023-08-24T01:31:16;98128.53;;;18.11;100.00
36190;BME280;22232;50.914;13.858;2023-08-24T01:33:45;98130.44;;;18.11;100.00
36190;BME280;22232;50.914;13.858;2023-08-24T01:36:14;98135.00;;;18.10;100.00
36190;BME280;22232;50.914;13.858;2023-08-24T01:38:48;98132.59;;;18.09;100.00
36190;BME280;22232;50.914;13.858;2023-08-24T01:41:28;98133.38;;;18.04;100.00
36190;BME280;22232;50.914;13.858;2023-08-24T01:43:58;98132.06;;;17.97;100.00
36190;BME280;22232;50.914;13.858;2023-08-24T01:46:29;98133.69;;;17.93;100.00
36190;BME280;22232;50.914;13.858;2023-08-24T01:48:59;98129.63;;;17.85;100.00
36190;BME280;22232;50.914;13.858;2023-08-24T01:51:27;98132.31;;;17.80;100.00
36190;BME280;22232;50.914;13.858;2023-08-24T01:53:55;98123.91;;;17.76;100.00
36190;BME280;22232;50.914;13.858;2023-08-24T01:56:24;98119.06;;;17.73;100.00
36190;BME280;22232;50.914;13.858;2023-08-24T01:58:52;98120.41;;;17.71;100.00
36190;BME280;22232;50.914;13.858;2023-08-24T02:01:20;98119.34;;;17.66;100.00
36190;BME280;22232;50.914;13.858;2023-08-24T02:03:47;98116.63;;;17.61;100.00
36190;BME280;22232;50.914;13.858;2023-08-24T02:06:15;98127.97;;;17.63;100.00
36190;BME280;22232;50.914;13.858;2023-08-24T02:08:42;98115.56;;;17.67;100.00
36190;BME280;22232;50.914;13.858;2023-08-24T02:11:12;98115.84;;;17.76;100.00
36190;BME280;22232;50.914;13.858;2023-08-24T02:13:39;98119.88;;;17.74;100.00
36190;BME280;22232;50.914;13.858;2023-08-24T02:16:08;98123.38;;;17.69;100.00
36190;BME280;22232;50.914;13.858;2023-08-24T02:18:39;98117.19;;;17.69;100.00
36190;BME280;22232;50.914;13.858;2023-08-24T02:21:09;98118.25;;;17.67;100.00
36190;BME280;22232;50.914;13.858;2023-08-24T02:23:40;98120.44;;;17.65;100.00
36190;BME280;22232;50.914;13.858;2023-08-24T02:26:07;98110.69;;;17.64;100.00
36190;BME280;22232;50.914;13.858;2023-08-24T02:28:37;98116.38;;;17.63;100.00
36190;BME280;22232;50.914;13.858;2023-08-24T02:31:05;98113.41;;;17.59;100.00
36190;BME280;22232;50.914;13.858;2023-08-24T02:33:35;98120.41;;;17.60;100.00
36190;BME280;22232;50.914;13.858;2023-08-24T02:36:04;98122.03;;;17.56;100.00
36190;BME280;22232;50.914;13.858;2023-08-24T02:38:31;98111.22;;;17.51;100.00
36190;BME280;22232;50.914;13.858;2023-08-24T02:41:03;98113.91;;;17.46;100.00
36190;BME280;22232;50.914;13.858;2023-08-24T02:43:32;98110.41;;;17.46;100.00
36190;BME280;22232;50.914;13.858;2023-08-24T02:46:05;98108.53;;;17.41;100.00
36190;BME280;22232;50.914;13.858;2023-08-24T02:48:33;98102.84;;;17.32;100.00
36190;BME280;22232;50.914;13.858;2023-08-24T02:51:03;98106.06;;;17.24;100.00
36190;BME280;22232;50.914;13.858;2023-08-24T02:53:31;98107.69;;;17.20;100.00
36190;BME280;22232;50.914;13.858;2023-08-24T02:56:01;98106.84;;;17.14;100.00
36190;BME280;22232;50.914;13.858;2023-08-24T02:58:29;98107.38;;;17.11;100.00
36190;BME280;22232;50.914;13.858;2023-08-24T03:00:57;98103.34;;;17.09;100.00
36190;BME280;22232;50.914;13.858;2023-08-24T03:03:25;98097.94;;;17.09;100.00
36190;BME280;22232;50.914;13.858;2023-08-24T03:05:58;98108.97;;;17.02;100.00
36190;BME280;22232;50.914;13.858;2023-08-24T03:08:29;98107.88;;;16.98;100.00
36190;BME280;22232;50.914;13.858;2023-08-24T03:10:58;98117.59;;;16.99;100.00
36190;BME280;22232;50.914;13.858;2023-08-24T03:13:27;98116.47;;;16.95;100.00
36190;BME280;22232;50.914;13.858;2023-08-24T03:15:55;98122.69;;;16.90;100.00
36190;BME280;22232;50.914;13.858;2023-08-24T03:18:27;98112.72;;;16.91;100.00
36190;BME280;22232;50.914;13.858;2023-08-24T03:20:55;98115.69;;;16.89;100.00
36190;BME280;22232;50.914;13.858;2023-08-24T03:23:23;98115.41;;;16.91;100.00
36190;BME280;22232;50.914;13.858;2023-08-24T03:25:50;98107.34;;;16.96;100.00
36190;BME280;22232;50.914;13.858;2023-08-24T03:28:18;98106.84;;;17.04;100.00
36190;BME280;22232;50.914;13.858;2023-08-24T03:30:48;98106.06;;;17.14;100.00
36190;BME280;22232;50.914;13.858;2023-08-24T03:33:16;98102.00;;;17.11;100.00
36190;BME280;22232;50.914;13.858;2023-08-24T03:35:44;98104.16;;;17.14;100.00
36190;BME280;22232;50.914;13.858;2023-08-24T03:38:12;98095.53;;;17.17;100.00
36190;BME280;22232;50.914;13.858;2023-08-24T03:40:39;98102.03;;;17.16;100.00
36190;BME280;22232;50.914;13.858;2023-08-24T03:43:07;98104.72;;;17.16;100.00
36190;BME280;22232;50.914;13.858;2023-08-24T03:45:35;98103.06;;;17.15;100.00
36190;BME280;22232;50.914;13.858;2023-08-24T03:48:04;98100.63;;;17.09;100.00
36190;BME280;22232;50.914;13.858;2023-08-24T03:50:32;98092.00;;;17.07;100.00
36190;BME280;22232;50.914;13.858;2023-08-24T03:52:59;98093.34;;;17.09;100.00
36190;BME280;22232;50.914;13.858;2023-08-24T03:55:27;98090.66;;;17.09;100.00
36190;BME280;22232;50.914;13.858;2023-08-24T03:57:55;98099.84;;;17.13;100.00
36190;BME280;22232;50.914;13.858;2023-08-24T04:00:25;98101.47;;;17.14;100.00
36190;BME280;22232;50.914;13.858;2023-08-24T04:02:53;98096.06;;;17.14;100.00
36190;BME280;22232;50.914;13.858;2023-08-24T04:05:25;98095.78;;;17.16;100.00
36190;BME280;22232;50.914;13.858;2023-08-24T04:07:52;98097.97;;;17.19;100.00
36190;BME280;22232;50.914;13.858;2023-08-24T04:10:20;98103.66;;;17.23;100.00
36190;BME280;22232;50.914;13.858;2023-08-24T04:12:48;98096.66;;;17.37;100.00
36190;BME280;22232;50.914;13.858;2023-08-24T04:15:16;98096.13;;;17.55;100.00
36190;BME280;22232;50.914;13.858;2023-08-24T04:17:43;98084.81;;;17.74;100.00
36190;BME280;22232;50.914;13.858;2023-08-24T04:20:11;98086.16;;;18.07;100.00
36190;BME280;22232;50.914;13.858;2023-08-24T04:22:39;98085.53;;;18.46;100.00
36190;BME280;22232;50.914;13.858;2023-08-24T04:25:07;98085.69;;;18.85;100.00
36190;BME280;22232;50.914;13.858;2023-08-24T04:27:36;98097.34;;;19.30;100.00
36190;BME280;22232;50.914;13.858;2023-08-24T04:30:05;98095.44;;;19.75;97.66
36190;BME280;22232;50.914;13.858;2023-08-24T04:32:32;98091.81;;;20.14;92.72
36190;BME280;22232;50.914;13.858;2023-08-24T04:35:00;98097.94;;;20.54;88.67
36190;BME280;22232;50.914;13.858;2023-08-24T04:37:28;98100.78;;;20.87;86.90
36190;BME280;22232;50.914;13.858;2023-08-24T04:39:55;98100.69;;;21.16;84.41
36190;BME280;22232;50.914;13.858;2023-08-24T04:42:23;98101.81;;;21.52;82.12
36190;BME280;22232;50.914;13.858;2023-08-24T04:44:52;98094.94;;;21.93;78.12
36190;BME280;22232;50.914;13.858;2023-08-24T04:47:19;98096.25;;;22.28;75.92
36190;BME280;22232;50.914;13.858;2023-08-24T04:49:47;98095.66;;;22.59;73.77
36190;BME280;22232;50.914;13.858;2023-08-24T04:52:15;98090.41;;;22.76;70.73
36190;BME280;22232;50.914;13.858;2023-08-24T04:54:42;98096.03;;;22.94;69.86
36190;BME280;22232;50.914;13.858;2023-08-24T04:57:10;98087.38;;;23.05;69.43
36190;BME280;22232;50.914;13.858;2023-08-24T04:59:37;98084.31;;;23.34;67.20
36190;BME280;22232;50.914;13.858;2023-08-24T05:02:05;98087.16;;;23.52;65.91
36190;BME280;22232;50.914;13.858;2023-08-24T05:04:32;98088.97;;;23.79;65.71
36190;BME280;22232;50.914;13.858;2023-08-24T05:07:00;98091.03;;;24.27;64.32
36190;BME280;22232;50.914;13.858;2023-08-24T05:09:27;98093.91;;;24.53;65.17
36190;BME280;22232;50.914;13.858;2023-08-24T05:11:55;98100.06;;;24.76;64.67
36190;BME280;22232;50.914;13.858;2023-08-24T05:14:23;98098.66;;;24.87;62.52
36190;BME280;22232;50.914;13.858;2023-08-24T05:16:50;98098.72;;;25.05;66.07
36190;BME280;22232;50.914;13.858;2023-08-24T05:19:18;98100.16;;;25.11;65.59
36190;BME280;22232;50.914;13.858;2023-08-24T05:21:45;98100.31;;;25.06;68.54
36190;BME280;22232;50.914;13.858;2023-08-24T05:24:13;98091.13;;;24.93;68.51
36190;BME280;22232;50.914;13.858;2023-08-24T05:26:41;98096.38;;;25.29;69.35
36190;BME280;22232;50.914;13.858;2023-08-24T05:29:08;98098.09;;;25.77;63.69
36190;BME280;22232;50.914;13.858;2023-08-24T05:31:36;98101.97;;;25.59;62.60
36190;BME280;22232;50.914;13.858;2023-08-24T05:34:03;98100.69;;;25.91;63.80
36190;BME280;22232;50.914;13.858;2023-08-24T05:36:31;98099.53;;;26.01;61.25
36190;BME280;22232;50.914;13.858;2023-08-24T05:38:58;98100.22;;;25.63;65.32
36190;BME280;22232;50.914;13.858;2023-08-24T05:41:33;98095.97;;;25.05;70.98
36190;BME280;22232;50.914;13.858;2023-08-24T05:44:01;98103.88;;;25.15;67.67
36190;BME280;22232;50.914;13.858;2023-08-24T05:46:28;98100.63;;;24.95;67.93
36190;BME280;22232;50.914;13.858;2023-08-24T05:48:57;98097.66;;;24.83;69.30
36190;BME280;22232;50.914;13.858;2023-08-24T05:51:25;98093.66;;;24.72;71.39
36190;BME280;22232;50.914;13.858;2023-08-24T05:53:54;98092.38;;;24.78;69.74
36190;BME280;22232;50.914;13.858;2023-08-24T05:56:25;98086.41;;;25.33;68.66
36190;BME280;22232;50.914;13.858;2023-08-24T05:58:54;98094.19;;;25.00;69.39
36190;BME280;22232;50.914;13.858;2023-08-24T06:01:22;98091.09;;;24.76;70.40
36190;BME280;22232;50.914;13.858;2023-08-24T06:03:50;98093.75;;;25.15;67.22
36190;BME280;22232;50.914;13.858;2023-08-24T06:06:18;98091.38;;;25.40;66.10
36190;BME280;22232;50.914;13.858;2023-08-24T06:08:45;98094.94;;;25.84;62.85
36190;BME280;22232;50.914;13.858;2023-08-24T06:11:13;98092.16;;;26.01;56.64
36190;BME280;22232;50.914;13.858;2023-08-24T06:13:40;98084.88;;;26.14;55.38
36190;BME280;22232;50.914;13.858;2023-08-24T06:16:08;98087.97;;;26.04;58.69
36190;BME280;22232;50.914;13.858;2023-08-24T06:18:35;98094.59;;;25.59;57.71
36190;BME280;22232;50.914;13.858;2023-08-24T06:21:03;98095.41;;;25.60;59.67
36190;BME280;22232;50.914;13.858;2023-08-24T06:23:31;98091.69;;;25.64;58.49
36190;BME280;22232;50.914;13.858;2023-08-24T06:25:58;98093.13;;;25.71;60.33
36190;BME280;22232;50.914;13.858;2023-08-24T06:28:26;98093.28;;;25.74;58.63
36190;BME280;22232;50.914;13.858;2023-08-24T06:30:54;98091.97;;;26.06;58.04
36190;BME280;22232;50.914;13.858;2023-08-24T06:33:27;98088.00;;;25.86;58.96
36190;BME280;22232;50.914;13.858;2023-08-24T06:35:58;98081.09;;;25.63;60.73
36190;BME280;22232;50.914;13.858;2023-08-24T06:38:26;98084.13;;;25.79;60.22
36190;BME280;22232;50.914;13.858;2023-08-24T06:40:53;98082.84;;;26.02;60.85
36190;BME280;22232;50.914;13.858;2023-08-24T06:43:21;98080.78;;;26.38;58.65
36190;BME280;22232;50.914;13.858;2023-08-24T06:45:49;98076.63;;;26.79;58.70
36190;BME280;22232;50.914;13.858;2023-08-24T06:48:17;98075.34;;;26.76;58.38
36190;BME280;22232;50.914;13.858;2023-08-24T06:50:47;98082.22;;;26.82;58.92
36190;BME280;22232;50.914;13.858;2023-08-24T06:53:15;98081.03;;;26.92;57.10
36190;BME280;22232;50.914;13.858;2023-08-24T06:55:43;98075.78;;;27.08;56.67
36190;BME280;22232;50.914;13.858;2023-08-24T06:58:10;98077.06;;;26.81;57.41
36190;BME280;22232;50.914;13.858;2023-08-24T07:00:38;98083.06;;;26.74;59.58
36190;BME280;22232;50.914;13.858;2023-08-24T07:03:07;98087.69;;;26.52;59.34
36190;BME280;22232;50.914;13.858;2023-08-24T07:05:34;98081.44;;;26.82;59.17
36190;BME280;22232;50.914;13.858;2023-08-24T07:08:05;98091.09;;;27.09;57.44
36190;BME280;22232;50.914;13.858;2023-08-24T07:10:33;98092.25;;;26.99;57.76
36190;BME280;22232;50.914;13.858;2023-08-24T07:13:00;98096.69;;;26.83;57.62
36190;BME280;22232;50.914;13.858;2023-08-24T07:15:28;98085.88;;;26.86;59.94
36190;BME280;22232;50.914;13.858;2023-08-24T07:17:55;98090.25;;;27.08;57.41
36190;BME280;22232;50.914;13.858;2023-08-24T07:20:23;98094.75;;;27.13;57.65
36190;BME280;22232;50.914;13.858;2023-08-24T07:22:51;98086.69;;;26.87;58.62
36190;BME280;22232;50.914;13.858;2023-08-24T07:25:18;98079.13;;;27.13;59.62
36190;BME280;22232;50.914;13.858;2023-08-24T07:27:47;98078.38;;;26.74;62.59
36190;BME280;22232;50.914;13.858;2023-08-24T07:30:15;98079.25;;;26.66;61.34
36190;BME280;22232;50.914;13.858;2023-08-24T07:32:58;98079.91;;;26.63;62.33
36190;BME280;22232;50.914;13.858;2023-08-24T07:35:26;98074.84;;;26.36;65.81
36190;BME280;22232;50.914;13.858;2023-08-24T07:37:54;98080.34;;;26.27;68.77
36190;BME280;22232;50.914;13.858;2023-08-24T07:40:21;98087.56;;;26.31;67.66
36190;BME280;22232;50.914;13.858;2023-08-24T07:42:50;98087.00;;;26.47;64.50
36190;BME280;22232;50.914;13.858;2023-08-24T07:45:21;98076.81;;;26.26;65.62
36190;BME280;22232;50.914;13.858;2023-08-24T07:47:49;98071.41;;;26.09;65.62
36190;BME280;22232;50.914;13.858;2023-08-24T07:50:19;98073.53;;;25.69;67.74
36190;BME280;22232;50.914;13.858;2023-08-24T07:52:46;98081.56;;;25.74;66.70
36190;BME280;22232;50.914;13.858;2023-08-24T07:55:14;98085.44;;;25.81;64.96
36190;BME280;22232;50.914;13.858;2023-08-24T07:57:43;98089.75;;;26.00;63.93
36190;BME280;22232;50.914;13.858;2023-08-24T08:00:12;98077.09;;;26.34;64.03
36190;BME280;22232;50.914;13.858;2023-08-24T08:02:41;98088.22;;;26.75;61.50
36190;BME280;22232;50.914;13.858;2023-08-24T08:05:09;98082.13;;;26.99;61.35
36190;BME280;22232;50.914;13.858;2023-08-24T08:07:40;98081.56;;;27.15;58.58
36190;BME280;22232;50.914;13.858;2023-08-24T08:10:08;98090.19;;;26.96;57.44
36190;BME280;22232;50.914;13.858;2023-08-24T08:12:36;98084.81;;;26.79;57.71
36190;BME280;22232;50.914;13.858;2023-08-24T08:15:04;98080.19;;;26.70;57.63
36190;BME280;22232;50.914;13.858;2023-08-24T08:17:32;98085.97;;;26.69;58.46
36190;BME280;22232;50.914;13.858;2023-08-24T08:20:00;98087.94;;;26.60;57.15
36190;BME280;22232;50.914;13.858;2023-08-24T08:22:29;98087.75;;;26.73;58.11
36190;BME280;22232;50.914;13.858;2023-08-24T08:24:57;98090.84;;;26.93;55.13
36190;BME280;22232;50.914;13.858;2023-08-24T08:27:25;98089.84;;;27.27;55.40
36190;BME280;22232;50.914;13.858;2023-08-24T08:29:53;98082.81;;;27.38;54.83
36190;BME280;22232;50.914;13.858;2023-08-24T08:32:20;98080.22;;;27.42;53.61
36190;BME280;22232;50.914;13.858;2023-08-24T08:34:48;98088.03;;;27.31;54.34
36190;BME280;22232;50.914;13.858;2023-08-24T08:37:15;98078.47;;;27.16;55.62
36190;BME280;22232;50.914;13.858;2023-08-24T08:39:43;98083.53;;;27.06;54.84
36190;BME280;22232;50.914;13.858;2023-08-24T08:42:13;98074.72;;;27.00;53.09
36190;BME280;22232;50.914;13.858;2023-08-24T08:44:42;98078.81;;;26.56;53.22
36190;BME280;22232;50.914;13.858;2023-08-24T08:47:14;98078.28;;;26.62;52.05
36190;BME280;22232;50.914;13.858;2023-08-24T08:49:43;98077.28;;;26.75;51.79
36190;BME280;22232;50.914;13.858;2023-08-24T08:52:12;98080.66;;;26.72;52.47
36190;BME280;22232;50.914;13.858;2023-08-24T08:54:39;98069.56;;;26.69;53.46
36190;BME280;22232;50.914;13.858;2023-08-24T08:57:08;98070.25;;;26.87;51.07
36190;BME280;22232;50.914;13.858;2023-08-24T08:59:35;98075.28;;;27.14;51.59
36190;BME280;22232;50.914;13.858;2023-08-24T09:02:04;98071.00;;;27.26;51.20
36190;BME280;22232;50.914;13.858;2023-08-24T09:04:33;98053.09;;;27.49;51.02
36190;BME280;22232;50.914;13.858;2023-08-24T09:07:04;98067.78;;;27.44;51.48
36190;BME280;22232;50.914;13.858;2023-08-24T09:09:38;98062.00;;;27.46;50.46
36190;BME280;22232;50.914;13.858;2023-08-24T09:12:06;98066.84;;;27.82;49.72
36190;BME280;22232;50.914;13.858;2023-08-24T09:14:34;98049.38;;;27.87;49.93
36190;BME280;22232;50.914;13.858;2023-08-24T09:17:02;98059.19;;;27.55;50.20
36190;BME280;22232;50.914;13.858;2023-08-24T09:19:32;98049.81;;;27.35;51.52
36190;BME280;22232;50.914;13.858;2023-08-24T09:22:03;98048.66;;;27.78;49.15
36190;BME280;22232;50.914;13.858;2023-08-24T09:24:35;98037.69;;;27.78;48.95
36190;BME280;22232;50.914;13.858;2023-08-24T09:27:20;98036.22;;;27.59;49.62
36190;BME280;22232;50.914;13.858;2023-08-24T09:29:52;98027.78;;;27.31;51.23
36190;BME280;22232;50.914;13.858;2023-08-24T09:32:23;98033.69;;;27.21;49.68
36190;BME280;22232;50.914;13.858;2023-08-24T09:34:51;98028.25;;;27.12;50.15
36190;BME280;22232;50.914;13.858;2023-08-24T09:37:19;98022.44;;;27.68;50.08
36190;BME280;22232;50.914;13.858;2023-08-24T09:39:47;98020.78;;;27.76;49.27
36190;BME280;22232;50.914;13.858;2023-08-24T09:42:24;98017.56;;;28.07;48.57
36190;BME280;22232;50.914;13.858;2023-08-24T09:45:02;98021.66;;;27.67;48.40
36190;BME280;22232;50.914;13.858;2023-08-24T09:47:32;98017.69;;;27.77;47.66
36190;BME280;22232;50.914;13.858;2023-08-24T09:49:59;98025.78;;;27.74;46.81
36190;BME280;22232;50.914;13.858;2023-08-24T09:52:34;98018.88;;;27.88;47.66
36190;BME280;22232;50.914;13.858;2023-08-24T09:55:05;98007.97;;;28.38;46.29
36190;BME280;22232;50.914;13.858;2023-08-24T09:57:39;98002.59;;;28.78;45.87
36190;BME280;22232;50.914;13.858;2023-08-24T10:00:08;98002.56;;;29.02;45.28
36190;BME280;22232;50.914;13.858;2023-08-24T10:02:51;97997.13;;;28.53;45.17
36190;BME280;22232;50.914;13.858;2023-08-24T10:05:23;97987.88;;;28.46;46.24
36190;BME280;22232;50.914;13.858;2023-08-24T10:07:56;97977.34;;;28.23;46.38
36190;BME280;22232;50.914;13.858;2023-08-24T10:10:27;97976.31;;;28.16;47.92
36190;BME280;22232;50.914;13.858;2023-08-24T10:17:09;97983.59;;;29.54;44.38
36190;BME280;22232;50.914;13.858;2023-08-24T10:19:42;97975.44;;;29.01;46.47
36190;BME280;22232;50.914;13.858;2023-08-24T10:22:10;97977.34;;;28.23;45.77
36190;BME280;22232;50.914;13.858;2023-08-24T10:24:39;97969.72;;;29.62;45.36
36190;BME280;22232;50.914;13.858;2023-08-24T10:27:09;97975.16;;;30.06;44.16
36190;BME280;22232;50.914;13.858;2023-08-24T10:29:36;97981.94;;;29.37;44.69
36190;BME280;22232;50.914;13.858;2023-08-24T10:32:04;97974.50;;;29.09;44.27
36190;BME280;22232;50.914;13.858;2023-08-24T10:34:33;97975.84;;;28.38;45.53
36190;BME280;22232;50.914;13.858;2023-08-24T10:37:11;97983.88;;;28.55;45.85
36190;BME280;22232;50.914;13.858;2023-08-24T10:39:46;97979.19;;;28.56;45.67
36190;BME280;22232;50.914;13.858;2023-08-24T10:42:14;97974.38;;;28.53;46.04
36190;BME280;22232;50.914;13.858;2023-08-24T10:44:45;97974.25;;;28.62;46.45
36190;BME280;22232;50.914;13.858;2023-08-24T10:47:23;97960.19;;;28.26;47.31
36190;BME280;22232;50.914;13.858;2023-08-24T10:52:23;97969.00;;;28.32;47.18
36190;BME280;22232;50.914;13.858;2023-08-24T10:54:53;97962.59;;;28.28;46.70
36190;BME280;22232;50.914;13.858;2023-08-24T10:57:25;97950.59;;;28.32;46.44
36190;BME280;22232;50.914;13.858;2023-08-24T11:00:04;97945.22;;;28.36;47.54
36190;BME280;22232;50.914;13.858;2023-08-24T11:02:50;97953.25;;;28.41;45.53
36190;BME280;22232;50.914;13.858;2023-08-24T11:05:24;97944.88;;;28.38;48.81
36190;BME280;22232;50.914;13.858;2023-08-24T11:10:25;97951.75;;;28.44;47.80
36190;BME280;22232;50.914;13.858;2023-08-24T11:13:18;97947.97;;;28.24;48.39
36190;BME280;22232;50.914;13.858;2023-08-24T11:15:51;97940.66;;;28.03;47.32
36190;BME280;22232;50.914;13.858;2023-08-24T11:18:27;97935.50;;;27.89;47.68
36190;BME280;22232;50.914;13.858;2023-08-24T11:20:56;97930.81;;;28.02;48.05
36190;BME280;22232;50.914;13.858;2023-08-24T11:23:26;97939.16;;;28.06;49.46
36190;BME280;22232;50.914;13.858;2023-08-24T11:25:55;97935.19;;;28.16;49.39
36190;BME280;22232;50.914;13.858;2023-08-24T11:28:29;97925.34;;;28.14;47.45
36190;BME280;22232;50.914;13.858;2023-08-24T11:30:58;97929.00;;;27.94;48.60
36190;BME280;22232;50.914;13.858;2023-08-24T11:33:30;97921.78;;;28.26;48.51
36190;BME280;22232;50.914;13.858;2023-08-24T11:36:00;97916.69;;;28.12;47.45
36190;BME280;22232;50.914;13.858;2023-08-24T11:38:41;97914.31;;;27.65;49.10
36190;BME280;22232;50.914;13.858;2023-08-24T11:41:13;97914.44;;;27.69;49.41
36190;BME280;22232;50.914;13.858;2023-08-24T11:43:45;97901.53;;;27.57;49.99
36190;BME280;22232;50.914;13.858;2023-08-24T11:46:18;97899.16;;;27.22;50.71
36190;BME280;22232;50.914;13.858;2023-08-24T11:48:46;97892.16;;;27.13;49.62
36190;BME280;22232;50.914;13.858;2023-08-24T11:51:13;97873.06;;;27.04;50.51
36190;BME280;22232;50.914;13.858;2023-08-24T11:53:49;97865.97;;;27.24;50.69
36190;BME280;22232;50.914;13.858;2023-08-24T11:56:17;97853.34;;;26.77;51.80
36190;BME280;22232;50.914;13.858;2023-08-24T11:58:49;97844.34;;;26.77;52.78
36190;BME280;22232;50.914;13.858;2023-08-24T12:01:18;97837.13;;;26.93;52.79
36190;BME280;22232;50.914;13.858;2023-08-24T12:03:46;97831.50;;;27.35;52.43
36190;BME280;22232;50.914;13.858;2023-08-24T12:06:15;97827.09;;;27.55;51.79
36190;BME280;22232;50.914;13.858;2023-08-24T12:08:46;97834.28;;;27.48;50.36
36190;BME280;22232;50.914;13.858;2023-08-24T12:11:18;97830.41;;;27.36;50.92
36190;BME280;22232;50.914;13.858;2023-08-24T12:13:49;97820.06;;;27.09;52.94
36190;BME280;22232;50.914;13.858;2023-08-24T12:16:18;97820.31;;;26.83;52.99
36190;BME280;22232;50.914;13.858;2023-08-24T12:18:53;97806.66;;;26.95;54.01
36190;BME280;22232;50.914;13.858;2023-08-24T12:21:23;97811.09;;;27.33;53.21
36190;BME280;22232;50.914;13.858;2023-08-24T12:24:02;97830.31;;;27.57;51.19
36190;BME280;22232;50.914;13.858;2023-08-24T12:26:34;97819.19;;;27.41;52.51
36190;BME280;22232;50.914;13.858;2023-08-24T12:29:07;97820.47;;;27.44;51.80
36190;BME280;22232;50.914;13.858;2023-08-24T12:31:36;97816.72;;;27.36;53.26
36190;BME280;22232;50.914;13.858;2023-08-24T12:34:06;97824.56;;;27.26;52.74
36190;BME280;22232;50.914;13.858;2023-08-24T12:36:38;97827.44;;;27.54;52.78
36190;BME280;22232;50.914;13.858;2023-08-24T12:39:07;97824.81;;;27.57;54.01
36190;BME280;22232;50.914;13.858;2023-08-24T12:41:38;97820.38;;;27.65;53.27
36190;BME280;22232;50.914;13.858;2023-08-24T12:44:06;97825.66;;;27.82;53.93
36190;BME280;22232;50.914;13.858;2023-08-24T12:46:35;97830.06;;;27.62;54.05
36190;BME280;22232;50.914;13.858;2023-08-24T12:49:03;97822.44;;;27.80;54.87
36190;BME280;22232;50.914;13.858;2023-08-24T12:51:31;97816.47;;;27.90;55.09
36190;BME280;22232;50.914;13.858;2023-08-24T12:53:58;97809.63;;;27.84;53.99
36190;BME280;22232;50.914;13.858;2023-08-24T12:56:26;97816.16;;;27.92;54.28
36190;BME280;22232;50.914;13.858;2023-08-24T12:58:54;97815.91;;;28.09;53.91
36190;BME280;22232;50.914;13.858;2023-08-24T13:01:22;97824.97;;;28.38;53.52
36190;BME280;22232;50.914;13.858;2023-08-24T13:03:50;97816.72;;;28.78;52.96
36190;BME280;22232;50.914;13.858;2023-08-24T13:06:17;97813.81;;;29.15;52.13
36190;BME280;22232;50.914;13.858;2023-08-24T13:08:52;97813.03;;;29.31;51.13